createdAt,value
2023-10-17T00:02:14.706Z,3.63
2023-10-17T00:04:44.420Z,7.30
2023-10-17T00:07:10.956Z,2.55
2023-10-17T00:09:40.410Z,4.22
2023-10-17T00:12:09.660Z,2.83
2023-10-17T00:14:36.371Z,2.47
2023-10-17T00:17:06.569Z,3.10
2023-10-17T00:19:33.082Z,2.42
2023-10-17T00:22:00.808Z,3.88
2023-10-17T00:24:27.650Z,2.13
2023-10-17T00:26:54.360Z,5.03
2023-10-17T00:29:20.807Z,3.23
2023-10-17T00:31:48.922Z,6.75
2023-10-17T00:34:18.657Z,4.70
2023-10-17T00:36:52.603Z,3.20
2023-10-17T00:39:31.534Z,4.50
2023-10-17T00:42:08.020Z,3.40
2023-10-17T00:44:42.356Z,3.47
2023-10-17T00:47:10.088Z,3.00
2023-10-17T00:49:46.318Z,3.28
2023-10-17T00:52:33.677Z,3.35
2023-10-17T00:55:02.464Z,6.70
2023-10-17T00:57:29.144Z,3.35
2023-10-17T01:00:12.279Z,2.65
2023-10-17T01:02:47.711Z,3.88
2023-10-17T01:05:14.602Z,3.60
2023-10-17T01:07:41.522Z,2.63
2023-10-17T01:10:11.740Z,4.22
2023-10-17T01:12:54.039Z,2.55
2023-10-17T01:15:21.754Z,2.90
2023-10-17T01:17:48.823Z,1.85
2023-10-17T01:20:21.672Z,3.60
2023-10-17T01:22:56.765Z,1.58
2023-10-17T01:25:27.778Z,5.13
2023-10-17T01:27:55.581Z,4.95
2023-10-17T01:30:23.803Z,4.50
2023-10-17T01:32:55.131Z,3.63
2023-10-17T01:35:22.906Z,2.50
2023-10-17T01:37:49.498Z,2.17
2023-10-17T01:40:34.772Z,2.58
2023-10-17T01:43:01.395Z,4.60
2023-10-17T01:45:30.080Z,3.37
2023-10-17T01:47:57.186Z,4.13
2023-10-17T01:50:27.386Z,2.35
2023-10-17T01:53:00.875Z,3.38
2023-10-17T01:55:31.772Z,5.60
2023-10-17T01:57:59.024Z,4.67
2023-10-17T02:00:39.366Z,3.80
2023-10-17T02:03:09.615Z,2.72
2023-10-17T02:05:36.258Z,3.30
2023-10-17T02:08:06.465Z,3.15
2023-10-17T02:10:34.474Z,4.63
2023-10-17T02:13:01.362Z,7.07
2023-10-17T02:15:28.459Z,3.67
2023-10-17T02:17:58.279Z,5.50
2023-10-17T02:20:30.898Z,3.08
2023-10-17T02:23:02.061Z,4.43
2023-10-17T02:25:38.140Z,4.97
2023-10-17T02:28:05.157Z,5.38
2023-10-17T02:30:31.653Z,4.00
2023-10-17T02:32:58.224Z,4.97
2023-10-17T02:35:40.246Z,3.53
2023-10-17T02:38:07.116Z,4.82
2023-10-17T02:40:41.551Z,2.97
2023-10-17T02:43:13.333Z,6.45
2023-10-17T02:45:42.516Z,3.08
2023-10-17T02:48:25.039Z,6.40
2023-10-17T02:51:00.349Z,4.97
2023-10-17T02:53:30.998Z,6.15
2023-10-17T02:55:58.427Z,7.13
2023-10-17T02:58:28.649Z,7.32
2023-10-17T03:00:57.726Z,5.03
2023-10-17T03:03:27.007Z,5.63
2023-10-17T03:05:54.467Z,3.92
2023-10-17T03:08:20.853Z,6.70
2023-10-17T03:10:49.983Z,4.78
2023-10-17T03:13:22.781Z,2.83
2023-10-17T03:15:58.257Z,4.32
2023-10-17T03:18:25.351Z,4.10
2023-10-17T03:20:53.241Z,6.90
2023-10-17T03:23:30.176Z,6.18
2023-10-17T03:26:03.572Z,4.17
2023-10-17T03:28:34.736Z,7.07
2023-10-17T03:31:01.180Z,4.65
2023-10-17T03:33:27.981Z,5.40
2023-10-17T03:36:05.741Z,5.68
2023-10-17T03:38:34.570Z,6.27
2023-10-17T03:41:16.617Z,5.00
2023-10-17T03:43:55.153Z,5.93
2023-10-17T03:46:27.763Z,3.65
2023-10-17T03:49:01.898Z,4.13
2023-10-17T03:51:28.708Z,3.67
2023-10-17T03:53:55.806Z,3.88
2023-10-17T03:56:25.757Z,3.65
2023-10-17T03:59:19.342Z,3.53
2023-10-17T04:01:49.099Z,5.13
2023-10-17T04:06:51.607Z,4.80
2023-10-17T04:09:22.981Z,5.75
2023-10-17T04:11:54.388Z,5.07
2023-10-17T04:14:27.168Z,5.13
2023-10-17T04:16:54.100Z,2.73
2023-10-17T04:19:21.452Z,3.30
2023-10-17T04:21:53.920Z,3.00
2023-10-17T04:24:47.869Z,2.92
2023-10-17T04:27:14.419Z,3.47
2023-10-17T04:29:45.066Z,5.90
2023-10-17T04:32:14.633Z,2.75
2023-10-17T04:34:48.075Z,7.13
2023-10-17T04:37:17.970Z,5.55
2023-10-17T04:39:56.622Z,4.13
2023-10-17T04:42:41.577Z,3.20
2023-10-17T04:45:15.432Z,3.95
2023-10-17T04:47:44.462Z,3.95
2023-10-17T04:50:13.846Z,5.40
2023-10-17T04:52:45.684Z,6.18
2023-10-17T04:55:35.491Z,4.73
2023-10-17T04:58:21.983Z,7.82
2023-10-17T05:01:19.447Z,4.70
2023-10-17T05:03:51.849Z,4.18
2023-10-17T05:06:27.256Z,3.92
2023-10-17T05:09:22.708Z,5.97
2023-10-17T05:12:07.706Z,3.97
2023-10-17T05:14:52.610Z,5.80
2023-10-17T05:17:37.512Z,6.22
2023-10-17T05:20:26.104Z,10.23
2023-10-17T05:23:11.331Z,3.73
2023-10-17T05:25:56.128Z,3.85
2023-10-17T05:28:40.878Z,6.65
2023-10-17T05:31:31.019Z,5.70
2023-10-17T05:34:16.655Z,3.83
2023-10-17T05:37:01.473Z,6.63
2023-10-17T05:39:46.648Z,4.88
2023-10-17T05:42:31.658Z,4.40
2023-10-17T05:45:16.620Z,4.72
2023-10-17T05:48:01.739Z,5.38
2023-10-17T05:50:46.655Z,4.73
2023-10-17T05:53:31.497Z,5.38
2023-10-17T05:56:16.401Z,5.55
2023-10-17T05:59:01.135Z,7.35
2023-10-17T06:01:45.937Z,6.80
2023-10-17T06:04:30.928Z,4.90
2023-10-17T06:07:16.337Z,7.65
2023-10-17T06:10:01.398Z,5.35
2023-10-17T06:12:46.897Z,7.82
2023-10-17T06:15:32.047Z,7.80
2023-10-17T06:17:58.533Z,4.20
2023-10-17T06:20:43.730Z,5.45
2023-10-17T06:23:25.208Z,6.80
2023-10-17T06:25:51.828Z,5.40
2023-10-17T06:28:35.236Z,8.77
2023-10-17T06:31:33.076Z,7.67
2023-10-17T06:34:01.867Z,5.93
2023-10-17T06:36:30.918Z,9.77
2023-10-17T06:38:58.169Z,6.80
2023-10-17T06:41:31.531Z,8.45
2023-10-17T06:43:59.684Z,6.27
2023-10-17T06:46:32.241Z,7.88
2023-10-17T06:49:06.278Z,8.40
2023-10-17T06:51:51.668Z,8.80
2023-10-17T06:54:25.648Z,7.72
2023-10-17T06:56:56.453Z,9.33
2023-10-17T06:59:34.580Z,9.07
2023-10-17T07:02:11.856Z,7.38
2023-10-17T07:04:54.389Z,7.35
2023-10-17T07:07:23.290Z,7.82
2023-10-17T07:10:09.084Z,8.30
2023-10-17T07:12:39.770Z,7.75
2023-10-17T07:15:13.989Z,7.93
2023-10-17T07:17:51.089Z,7.15
2023-10-17T07:20:37.639Z,8.77
2023-10-17T07:23:14.857Z,7.30
2023-10-17T07:25:42.248Z,11.15
2023-10-17T07:28:11.516Z,5.35
2023-10-17T07:30:50.548Z,9.02
2023-10-17T07:33:18.741Z,7.88
2023-10-17T07:35:45.476Z,8.80
2023-10-17T07:38:15.269Z,9.80
2023-10-17T07:40:41.692Z,8.02
2023-10-17T07:43:11.226Z,10.32
2023-10-17T07:45:40.716Z,7.95
2023-10-17T07:48:21.891Z,7.37
2023-10-17T07:50:52.810Z,11.13
2023-10-17T07:53:22.385Z,9.85
2023-10-17T07:55:54.305Z,7.10
2023-10-17T07:58:39.513Z,15.05
2023-10-17T08:01:09.328Z,6.83
2023-10-17T08:03:40.829Z,7.75
2023-10-17T08:06:19.032Z,5.57
2023-10-17T08:08:46.045Z,8.02
2023-10-17T08:11:28.458Z,7.38
2023-10-17T08:14:05.460Z,6.53
2023-10-17T08:16:34.306Z,6.45
2023-10-17T08:19:37.769Z,6.72
2023-10-17T08:22:07.728Z,8.20
2023-10-17T08:24:41.693Z,8.30
2023-10-17T08:27:15.237Z,5.80
2023-10-17T08:29:49.196Z,7.07
2023-10-17T08:32:21.948Z,6.22
2023-10-17T08:35:04.877Z,7.30
2023-10-17T08:37:44.324Z,8.38
2023-10-17T08:40:33.902Z,6.23
2023-10-17T08:43:01.875Z,9.80
2023-10-17T08:45:33.381Z,4.60
2023-10-17T08:48:02.983Z,5.40
2023-10-17T08:50:31.907Z,5.90
2023-10-17T08:53:00.808Z,6.37
2023-10-17T08:55:28.708Z,4.63
2023-10-17T08:57:55.117Z,6.05
2023-10-17T09:00:24.814Z,7.55
2023-10-17T09:02:58.482Z,5.38
2023-10-17T09:05:27.653Z,5.53
2023-10-17T09:07:57.574Z,5.43
2023-10-17T09:10:31.949Z,4.78
2023-10-17T09:13:18.397Z,3.90
2023-10-17T09:15:50.882Z,4.82
2023-10-17T09:18:27.817Z,7.43
2023-10-17T09:20:55.388Z,5.50
2023-10-17T09:23:27.674Z,8.18
2023-10-17T09:25:59.742Z,3.85
2023-10-17T09:28:26.757Z,6.70
2023-10-17T09:31:16.928Z,5.93
2023-10-17T09:33:45.204Z,8.10
2023-10-17T09:36:18.863Z,5.85
2023-10-17T09:38:47.227Z,5.70
2023-10-17T09:41:19.385Z,11.25
2023-10-17T09:43:50.764Z,8.17
2023-10-17T09:46:27.154Z,5.60
2023-10-17T09:48:54.382Z,6.30
2023-10-17T09:51:23.258Z,8.68
2023-10-17T09:53:59.662Z,5.22
2023-10-17T09:56:31.434Z,4.17
2023-10-17T09:59:04.023Z,6.38
2023-10-17T10:01:32.669Z,7.97
2023-10-17T10:04:03.218Z,7.32
2023-10-17T10:06:36.093Z,6.03
2023-10-17T10:09:02.537Z,5.60
2023-10-17T10:11:54.704Z,8.18
2023-10-17T10:14:27.523Z,7.03
2023-10-17T10:16:57.887Z,6.05
2023-10-17T10:19:54.354Z,7.60
2023-10-17T10:22:21.013Z,5.27
2023-10-17T10:24:48.904Z,4.13
2023-10-17T10:27:16.681Z,3.58
2023-10-17T10:29:47.005Z,9.63
2023-10-17T10:32:52.944Z,7.80
2023-10-17T10:35:20.703Z,3.73
2023-10-17T10:37:50.642Z,6.00
2023-10-17T10:40:27.688Z,7.00
2023-10-17T10:42:59.071Z,10.23
2023-10-17T10:45:37.554Z,4.45
2023-10-17T10:48:11.083Z,5.70
2023-10-17T10:50:42.289Z,6.88
2023-10-17T10:53:30.597Z,5.45
2023-10-17T10:56:10.488Z,6.40
2023-10-17T10:58:56.348Z,5.25
2023-10-17T11:01:24.532Z,3.13
2023-10-17T11:03:52.259Z,2.92
2023-10-17T11:06:28.528Z,6.20
2023-10-17T11:08:55.653Z,5.18
2023-10-17T11:11:22.842Z,4.00
2023-10-17T11:13:55.575Z,5.33
2023-10-17T11:16:26.111Z,3.33
2023-10-17T11:18:53.230Z,4.38
2023-10-17T11:21:21.818Z,4.35
2023-10-17T11:23:56.440Z,2.58
2023-10-17T11:26:28.955Z,3.03
2023-10-17T11:28:57.402Z,3.78
2023-10-17T11:31:28.349Z,3.65
2023-10-17T11:34:00.476Z,2.80
2023-10-17T11:36:36.968Z,4.07
2023-10-17T11:39:08.391Z,3.63
2023-10-17T11:41:48.944Z,3.38
2023-10-17T11:44:17.083Z,1.88
2023-10-17T11:47:02.682Z,5.70
2023-10-17T11:49:37.288Z,2.50
2023-10-17T11:52:12.414Z,3.50
2023-10-17T11:55:15.805Z,6.68
2023-10-17T11:57:43.272Z,4.43
2023-10-17T12:00:17.093Z,2.85
2023-10-17T12:02:44.276Z,3.28
2023-10-17T12:05:21.675Z,3.10
2023-10-17T12:07:58.301Z,4.25
2023-10-17T12:10:25.785Z,5.22
2023-10-17T12:13:05.648Z,3.63
2023-10-17T12:15:32.126Z,3.85
2023-10-17T12:17:58.696Z,6.13
2023-10-17T12:20:28.544Z,3.90
2023-10-17T12:22:56.739Z,4.60
2023-10-17T12:25:34.124Z,4.22
2023-10-17T12:28:03.298Z,4.30
2023-10-17T12:30:33.805Z,3.00
2023-10-17T12:33:02.795Z,3.72
2023-10-17T12:35:29.732Z,5.05
2023-10-17T12:38:00.354Z,2.75
2023-10-17T12:40:27.481Z,2.33
2023-10-17T12:42:56.771Z,1.77
2023-10-17T12:45:23.892Z,5.50
2023-10-17T12:47:50.526Z,6.40
2023-10-17T12:50:19.510Z,2.63
2023-10-17T12:52:46.299Z,2.67
2023-10-17T12:55:15.629Z,3.30
2023-10-17T12:57:42.380Z,2.38
2023-10-17T13:00:13.181Z,3.50
2023-10-17T13:02:40.873Z,2.67
2023-10-17T13:05:12.451Z,2.50
2023-10-17T13:07:40.376Z,1.07
2023-10-17T13:10:08.665Z,4.35
2023-10-17T13:12:35.677Z,2.35
2023-10-17T13:15:02.360Z,2.17
2023-10-17T13:17:29.903Z,2.50
2023-10-17T13:19:58.611Z,2.27
2023-10-17T13:22:25.260Z,3.25
2023-10-17T13:24:51.854Z,3.60
2023-10-17T13:27:20.721Z,4.50
2023-10-17T13:29:48.112Z,4.43
2023-10-17T13:32:14.752Z,2.03
2023-10-17T13:34:41.165Z,3.08
2023-10-17T13:37:08.624Z,2.95
2023-10-17T13:39:38.189Z,2.38
2023-10-17T13:42:05.097Z,2.45
2023-10-17T13:44:32.062Z,5.57
2023-10-17T13:46:58.800Z,3.22
2023-10-17T13:49:26.540Z,2.05
2023-10-17T13:51:55.315Z,1.52
2023-10-17T13:54:21.944Z,1.65
2023-10-17T13:56:48.364Z,3.43
2023-10-17T13:59:14.973Z,3.70
2023-10-17T14:01:47.640Z,2.33
2023-10-17T14:04:14.648Z,6.25
2023-10-17T14:06:44.843Z,3.85
2023-10-17T14:09:24.713Z,2.13
2023-10-17T14:11:52.009Z,3.00
2023-10-17T14:14:20.012Z,2.78
2023-10-17T14:16:52.084Z,2.72
2023-10-17T14:19:38.439Z,3.38
2023-10-17T14:22:14.349Z,3.10
2023-10-17T14:24:53.935Z,1.65
2023-10-17T14:27:34.599Z,3.00
2023-10-17T14:30:05.685Z,3.38
2023-10-17T14:32:32.686Z,4.32
2023-10-17T14:34:59.622Z,1.43
2023-10-17T14:37:28.177Z,2.42
2023-10-17T14:39:55.299Z,2.58
2023-10-17T14:42:22.234Z,3.05
2023-10-17T14:44:53.153Z,2.50
2023-10-17T14:47:19.878Z,2.63
2023-10-17T14:49:50.520Z,4.38
2023-10-17T14:52:22.666Z,2.88
2023-10-17T14:54:49.930Z,3.60
2023-10-17T14:57:18.046Z,6.47
2023-10-17T14:59:45.445Z,2.60
2023-10-17T15:02:12.298Z,1.48
2023-10-17T15:04:40.164Z,2.65
2023-10-17T15:07:08.429Z,2.20
2023-10-17T15:09:38.472Z,2.53
2023-10-17T15:12:07.923Z,1.27
2023-10-17T15:14:36.520Z,3.38
2023-10-17T15:17:06.480Z,4.20
2023-10-17T15:19:34.080Z,1.75
2023-10-17T15:22:01.297Z,5.07
2023-10-17T15:24:29.721Z,1.83
2023-10-17T15:26:58.315Z,2.90
2023-10-17T15:29:24.813Z,3.90
2023-10-17T15:31:56.370Z,3.97
2023-10-17T15:34:23.425Z,2.92
2023-10-17T15:36:58.466Z,2.57
2023-10-17T15:39:31.136Z,2.55
2023-10-17T15:42:07.422Z,1.50
2023-10-17T15:44:37.403Z,3.50
2023-10-17T15:47:07.332Z,2.42
2023-10-17T15:49:33.858Z,3.33
2023-10-17T15:52:00.515Z,3.28
2023-10-17T15:54:27.010Z,2.72
2023-10-17T15:56:53.540Z,2.38
2023-10-17T15:59:19.991Z,1.90
2023-10-17T16:01:46.616Z,1.83
2023-10-17T16:04:14.786Z,1.58
2023-10-17T16:06:41.643Z,2.47
2023-10-17T16:09:10.189Z,2.47
2023-10-17T16:11:38.075Z,3.53
2023-10-17T16:14:04.683Z,2.57
2023-10-17T16:16:32.101Z,2.08
2023-10-17T16:18:58.763Z,3.15
2023-10-17T16:21:25.343Z,2.00
2023-10-17T16:23:51.784Z,4.88
2023-10-17T16:26:18.514Z,2.47
2023-10-17T16:28:44.969Z,3.90
2023-10-17T16:31:14.381Z,1.67
2023-10-17T16:33:41.024Z,3.85
2023-10-17T16:36:11.495Z,2.33
2023-10-17T16:38:39.982Z,2.47
2023-10-17T16:41:06.422Z,2.00
2023-10-17T16:43:33.358Z,1.80
2023-10-17T16:46:03.214Z,1.75
2023-10-17T16:48:30.455Z,3.03
2023-10-17T16:50:57.699Z,6.93
2023-10-17T16:53:25.479Z,1.45
2023-10-17T16:55:52.025Z,2.97
2023-10-17T16:58:19.169Z,3.03
2023-10-17T17:00:45.549Z,3.05
2023-10-17T17:03:13.259Z,4.13
2023-10-17T17:05:40.024Z,3.03
2023-10-17T17:08:08.150Z,3.65
2023-10-17T17:10:42.897Z,1.48
2023-10-17T17:13:12.873Z,4.60
2023-10-17T17:15:44.409Z,4.93
2023-10-17T17:18:30.687Z,4.93
2023-10-17T17:20:59.821Z,3.55
2023-10-17T17:23:26.228Z,3.97
2023-10-17T17:25:52.691Z,7.72
2023-10-17T17:28:19.123Z,4.47
2023-10-17T17:30:47.244Z,3.78
2023-10-17T17:33:13.902Z,5.15
2023-10-17T17:35:40.348Z,2.20
2023-10-17T17:38:07.573Z,5.22
2023-10-17T17:40:35.835Z,4.07
2023-10-17T17:43:02.419Z,4.88
2023-10-17T17:45:29.412Z,3.72
2023-10-17T17:47:55.935Z,2.40
2023-10-17T17:50:22.390Z,3.17
2023-10-17T17:52:48.920Z,7.20
2023-10-17T17:55:15.400Z,5.35
2023-10-17T17:57:41.941Z,5.13
2023-10-17T18:00:10.696Z,4.30
2023-10-17T18:02:37.311Z,2.70
2023-10-17T18:05:04.093Z,4.17
2023-10-17T18:07:30.656Z,4.68
2023-10-17T18:09:57.897Z,6.53
2023-10-17T18:12:24.796Z,1.80
2023-10-17T18:14:51.411Z,3.28
2023-10-17T18:17:18.780Z,1.70
2023-10-17T18:19:45.196Z,3.83
2023-10-17T18:22:11.652Z,1.90
2023-10-17T18:24:40.036Z,4.32
2023-10-17T18:27:08.558Z,5.00
2023-10-17T18:29:34.996Z,3.83
2023-10-17T18:32:01.835Z,7.47
2023-10-17T18:34:28.391Z,2.47
2023-10-17T18:36:57.162Z,7.57
2023-10-17T18:39:24.145Z,5.00
2023-10-17T18:41:51.250Z,4.70
2023-10-17T18:44:17.734Z,3.78
2023-10-17T18:46:44.265Z,4.40
2023-10-17T18:49:11.774Z,7.25
2023-10-17T18:51:40.999Z,3.50
2023-10-17T18:54:08.685Z,8.57
2023-10-17T18:56:36.567Z,4.22
2023-10-17T18:59:04.964Z,4.40
2023-10-17T19:01:31.910Z,7.53
2023-10-17T19:04:00.171Z,5.30
2023-10-17T19:06:27.681Z,6.33
2023-10-17T19:08:54.308Z,5.47
2023-10-17T19:11:20.688Z,8.23
2023-10-17T19:13:47.170Z,7.95
2023-10-17T19:16:16.527Z,6.85
2023-10-17T19:18:46.584Z,6.50
2023-10-17T19:21:15.473Z,5.78
2023-10-17T19:23:44.956Z,4.90
2023-10-17T19:26:16.839Z,5.03
2023-10-17T19:28:44.187Z,7.30
2023-10-17T19:31:11.774Z,7.63
2023-10-17T19:33:38.979Z,9.23
2023-10-17T19:36:06.133Z,5.13
2023-10-17T19:38:32.766Z,5.07
2023-10-17T19:40:59.761Z,5.47
2023-10-17T19:43:27.191Z,6.10
2023-10-17T19:45:53.748Z,5.88
2023-10-17T19:48:20.251Z,6.53
2023-10-17T19:50:46.664Z,8.20
2023-10-17T19:53:13.407Z,5.20
2023-10-17T19:55:41.466Z,7.40
2023-10-17T19:58:08.232Z,4.97
2023-10-17T20:00:36.352Z,8.70
2023-10-17T20:03:04.113Z,10.18
2023-10-17T20:05:30.686Z,9.77
2023-10-17T20:07:57.802Z,7.57
2023-10-17T20:10:24.304Z,6.57
2023-10-17T20:12:54.571Z,5.82
2023-10-17T20:15:20.979Z,8.63
2023-10-17T20:17:48.481Z,11.77
2023-10-17T20:20:15.731Z,5.23
2023-10-17T20:22:43.758Z,7.57
2023-10-17T20:25:10.334Z,8.82
2023-10-17T20:27:36.754Z,6.40
2023-10-17T20:30:06.458Z,7.50
2023-10-17T20:32:36.760Z,7.87
2023-10-17T20:35:03.543Z,8.15
2023-10-17T20:37:30.499Z,7.63
2023-10-17T20:39:59.112Z,8.77
2023-10-17T20:42:25.639Z,7.57
2023-10-17T20:44:52.035Z,8.63
2023-10-17T20:47:18.497Z,8.13
2023-10-17T20:49:45.264Z,9.23
2023-10-17T20:52:12.472Z,6.72
2023-10-17T20:54:41.091Z,7.25
2023-10-17T20:57:08.204Z,9.87
2023-10-17T20:59:34.734Z,9.18
2023-10-17T21:02:01.234Z,8.95
2023-10-17T21:04:27.969Z,11.90
2023-10-17T21:06:54.953Z,7.38
2023-10-17T21:09:22.739Z,8.13
2023-10-17T21:11:49.209Z,12.18
2023-10-17T21:14:15.701Z,9.10
2023-10-17T21:16:42.315Z,8.45
2023-10-17T21:19:09.322Z,7.47
2023-10-17T21:21:38.402Z,7.90
2023-10-17T21:24:08.698Z,6.72
2023-10-17T21:26:35.440Z,8.40
2023-10-17T21:29:02.197Z,8.68
2023-10-17T21:31:29.133Z,10.77
2023-10-17T21:33:56.026Z,10.30
2023-10-17T21:36:24.000Z,9.10
2023-10-17T21:38:51.998Z,9.52
2023-10-17T21:41:19.089Z,8.00
2023-10-17T21:43:45.488Z,8.63
2023-10-17T21:46:12.764Z,8.50
2023-10-17T21:48:46.033Z,10.95
2023-10-17T21:51:20.230Z,7.45
2023-10-17T21:53:47.982Z,9.20
2023-10-17T21:56:16.083Z,9.32
2023-10-17T21:58:42.918Z,10.53
2023-10-17T22:01:16.172Z,14.38
2023-10-17T22:03:44.184Z,8.25
2023-10-17T22:06:11.889Z,9.40
2023-10-17T22:08:39.652Z,11.32
2023-10-17T22:11:07.304Z,11.73
2023-10-17T22:13:34.265Z,9.10
2023-10-17T22:16:00.736Z,12.52
2023-10-17T22:18:27.524Z,10.82
2023-10-17T22:20:53.994Z,8.93
2023-10-17T22:23:22.645Z,10.63
2023-10-17T22:25:49.609Z,10.15
2023-10-17T22:28:17.181Z,11.60
2023-10-17T22:30:43.793Z,12.57
2023-10-17T22:33:10.903Z,12.10
2023-10-17T22:35:37.432Z,9.63
2023-10-17T22:38:04.140Z,10.88
2023-10-17T22:40:30.595Z,8.50
2023-10-17T22:42:58.255Z,10.43
2023-10-17T22:45:24.748Z,10.90
2023-10-17T22:47:51.458Z,8.47
2023-10-17T22:50:18.193Z,12.52
2023-10-17T22:52:44.831Z,9.50
2023-10-17T22:55:11.593Z,8.90
2023-10-17T22:57:38.255Z,11.75
2023-10-17T23:00:09.089Z,11.23
2023-10-17T23:02:35.813Z,11.52
2023-10-17T23:05:02.422Z,9.27
2023-10-17T23:07:29.140Z,9.93
2023-10-17T23:09:56.084Z,10.98
2023-10-17T23:12:22.823Z,10.03
2023-10-17T23:14:49.378Z,14.50
2023-10-17T23:17:15.831Z,10.43
2023-10-17T23:19:42.257Z,9.48
2023-10-17T23:22:09.899Z,15.60
2023-10-17T23:24:36.915Z,8.80
2023-10-17T23:27:03.403Z,11.73
2023-10-17T23:29:29.986Z,11.35
2023-10-17T23:31:56.586Z,10.30
2023-10-17T23:34:23.011Z,11.75
2023-10-17T23:36:49.545Z,12.83
2023-10-17T23:39:17.466Z,10.18
2023-10-17T23:41:46.759Z,11.10
2023-10-17T23:44:14.253Z,11.65
2023-10-17T23:46:41.767Z,14.05
2023-10-17T23:49:11.762Z,11.53
2023-10-17T23:51:38.940Z,10.18
2023-10-17T23:54:09.091Z,12.73
2023-10-17T23:56:36.518Z,11.65
2023-10-17T23:59:04.649Z,9.90
